Time;durP1;ratioP1;P1;durP2;ratioP2;P2;SDS_P1;SDS_P2;PMS_P1;PMS_P2;Temp;Humidity;BMP_temperature;BMP_pressure;BME280_temperature;BME280_humidity;BME280_pressure;Samples;Min_cycle;Max_cycle;Signal;HPM_P1;HPM_P2
2022/11/10 00:00:46;;;;;;;5.47;2.37;;;;;;;11.36;nan;98492.06;5054517;28;20229;-72
2022/11/10 00:03:13;;;;;;;5.17;2.10;;;;;;;11.36;nan;98486.75;5055316;28;20205;-72
2022/11/10 00:05:39;;;;;;;3.87;2.07;;;;;;;11.30;nan;98489.44;5054579;28;20273;-71
2022/11/10 00:08:08;;;;;;;4.70;2.10;;;;;;;11.36;nan;98494.72;5054536;28;20204;-71
2022/11/10 00:10:55;;;;;;;3.53;2.20;;;;;;;11.35;nan;98492.28;5054468;28;20227;-71
2022/11/10 00:13:24;;;;;;;6.53;2.50;;;;;;;11.27;nan;98492.50;5054741;28;20535;-72
2022/11/10 00:18:36;;;;;;;4.40;2.60;;;;;;;11.30;nan;98503.53;5054539;28;20243;-72
2022/11/10 00:21:07;;;;;;;7.13;1.80;;;;;;;11.49;nan;98501.81;5015531;28;1108082;-72
2022/11/10 00:23:33;;;;;;;3.27;1.87;;;;;;;11.42;nan;98501.84;5055209;28;20189;-71
2022/11/10 00:26:00;;;;;;;6.03;2.20;;;;;;;11.34;nan;98504.75;5055279;28;20209;-71
2022/11/10 00:28:26;;;;;;;4.10;2.00;;;;;;;11.37;nan;98509.66;5055060;28;20245;-72
2022/11/10 00:30:52;;;;;;;4.63;2.00;;;;;;;11.40;nan;98503.88;5054642;28;20310;-72
2022/11/10 00:33:19;;;;;;;5.50;1.97;;;;;;;11.37;nan;98509.66;5055081;28;20215;-71
2022/11/10 00:35:45;;;;;;;7.17;1.97;;;;;;;11.33;nan;98516.44;5055035;28;20238;-71
2022/11/10 00:38:12;;;;;;;5.23;1.90;;;;;;;11.27;nan;98511.13;5055055;28;20213;-71
2022/11/10 00:40:39;;;;;;;3.67;1.97;;;;;;;11.25;nan;98514.00;5054892;28;20230;-72
2022/11/10 00:43:05;;;;;;;3.50;2.00;;;;;;;11.22;nan;98522.44;5054909;28;20233;-71
2022/11/10 00:45:31;;;;;;;7.13;1.97;;;;;;;11.19;nan;98520.19;5054919;28;20211;-72
2022/11/10 00:47:58;;;;;;;2.97;2.00;;;;;;;11.12;nan;98518.59;5054508;28;20233;-71
2022/11/10 00:50:24;;;;;;;4.73;1.90;;;;;;;11.12;nan;98526.56;5054761;28;20222;-72
2022/11/10 00:52:50;;;;;;;4.20;1.77;;;;;;;11.14;nan;98522.66;5053895;28;20208;-71
2022/11/10 00:55:17;;;;;;;4.83;2.20;;;;;;;11.08;nan;98526.16;5054627;28;20201;-71
2022/11/10 00:57:43;;;;;;;6.07;2.20;;;;;;;11.23;nan;98518.75;5054677;28;20205;-71
2022/11/10 01:00:10;;;;;;;3.53;1.90;;;;;;;11.19;nan;98534.28;5054555;28;20548;-72
2022/11/10 01:02:37;;;;;;;3.60;2.10;;;;;;;11.18;nan;98540.66;5054498;28;20225;-71
2022/11/10 01:05:04;;;;;;;5.63;2.07;;;;;;;11.23;nan;98548.81;5054548;28;20208;-71
2022/11/10 01:07:32;;;;;;;5.57;2.03;;;;;;;11.21;nan;98546.59;5054460;28;20237;-71
2022/11/10 01:09:58;;;;;;;5.57;1.87;;;;;;;11.18;nan;98541.69;5054266;28;20220;-71
2022/11/10 01:12:28;;;;;;;7.43;1.90;;;;;;;11.25;nan;98553.94;5054364;28;20201;-71
2022/11/10 01:14:56;;;;;;;3.83;1.90;;;;;;;11.27;nan;98558.00;5054652;28;20220;-71
2022/11/10 01:17:22;;;;;;;3.67;2.03;;;;;;;11.27;nan;98556.38;5053986;28;20206;-71
2022/11/10 01:19:49;;;;;;;6.17;2.13;;;;;;;11.28;nan;98553.53;5053851;28;20698;-71
2022/11/10 01:22:15;;;;;;;6.83;2.10;;;;;;;11.26;nan;98558.22;5053859;28;20233;-71
2022/11/10 01:24:41;;;;;;;4.37;1.80;;;;;;;11.25;nan;98569.91;5053784;28;20209;-71
2022/11/10 01:27:08;;;;;;;7.03;2.27;;;;;;;11.26;nan;98574.19;5053463;28;20618;-71
2022/11/10 01:29:34;;;;;;;7.10;1.77;;;;;;;11.26;nan;98576.84;5054064;28;20205;-71
2022/11/10 01:32:00;;;;;;;6.63;2.23;;;;;;;11.20;nan;98572.38;5053986;28;20217;-71
2022/11/10 01:34:27;;;;;;;5.53;1.80;;;;;;;11.18;nan;98577.13;5054045;28;20207;-71
2022/11/10 01:36:53;;;;;;;4.33;2.00;;;;;;;10.95;nan;98574.13;5053954;28;20208;-71
2022/11/10 01:39:19;;;;;;;7.37;2.00;;;;;;;10.91;nan;98567.56;5053698;28;20206;-71
2022/11/10 01:41:46;;;;;;;8.57;1.90;;;;;;;10.92;nan;98579.84;5053783;28;20563;-71
2022/11/10 01:44:20;;;;;;;7.30;2.30;;;;;;;10.85;nan;98576.34;5053844;28;20206;-71
2022/11/10 01:46:47;;;;;;;5.73;2.40;;;;;;;10.74;nan;98582.31;5053791;28;20541;-71
2022/11/10 01:49:17;;;;;;;6.37;2.13;;;;;;;10.65;nan;98589.72;5053657;28;20201;-71
2022/11/10 01:52:00;;;;;;;6.53;2.40;;;;;;;10.65;nan;98586.22;5053674;28;20223;-71
2022/11/10 01:54:34;;;;;;;7.23;2.47;;;;;;;10.46;nan;98589.72;5053461;28;20192;-71
2022/11/10 01:57:06;;;;;;;8.47;2.53;;;;;;;10.46;nan;98590.53;5052558;28;20193;-71
2022/11/10 01:59:42;;;;;;;6.50;2.27;;;;;;;10.40;nan;98595.84;5053406;28;20196;-71
2022/11/10 02:02:16;;;;;;;9.30;2.30;;;;;;;10.45;nan;98593.41;5053515;28;20243;-71
2022/11/10 02:04:43;;;;;;;8.53;2.10;;;;;;;10.40;nan;98586.03;5053495;28;20193;-71
2022/11/10 02:07:10;;;;;;;5.90;2.00;;;;;;;10.44;nan;98583.78;5053531;28;20239;-71
2022/11/10 02:09:37;;;;;;;5.07;2.17;;;;;;;10.32;nan;98590.75;5053230;28;20212;-71
2022/11/10 02:12:03;;;;;;;5.67;2.03;;;;;;;10.26;nan;98599.50;5053100;28;20697;-71
2022/11/10 02:14:30;;;;;;;7.63;2.20;;;;;;;10.28;nan;98598.28;5053457;28;20205;-72
2022/11/10 02:16:56;;;;;;;6.43;2.50;;;;;;;10.19;nan;98598.69;5053097;28;20213;-71
2022/11/10 02:19:25;;;;;;;8.13;2.33;;;;;;;10.15;nan;98608.94;5053437;28;20216;-71
2022/11/10 02:21:52;;;;;;;8.17;2.43;;;;;;;10.20;nan;98608.31;5052989;28;20233;-72
2022/11/10 02:24:18;;;;;;;6.20;2.43;;;;;;;9.99;nan;98603.13;5053365;28;20205;-71
2022/11/10 02:26:54;;;;;;;7.97;2.30;;;;;;;9.96;nan;98608.84;5053086;28;20568;-71
2022/11/10 02:29:22;;;;;;;7.10;2.20;;;;;;;9.92;nan;98618.25;5053019;28;20205;-71
2022/11/10 02:31:48;;;;;;;7.87;2.40;;;;;;;9.94;nan;98626.81;5052910;28;20727;-71
2022/11/10 02:34:15;;;;;;;8.17;2.23;;;;;;;9.99;nan;98621.72;5053001;28;20212;-71
2022/11/10 02:36:41;;;;;;;6.30;2.40;;;;;;;10.01;nan;98625.81;5053260;28;20292;-72
2022/11/10 02:39:08;;;;;;;9.03;2.63;;;;;;;9.88;nan;98627.63;5053213;28;20204;-71
2022/11/10 02:41:34;;;;;;;9.97;2.23;;;;;;;9.85;nan;98639.47;5052780;28;20230;-71
2022/11/10 02:44:02;;;;;;;9.37;2.10;;;;;;;9.79;nan;98636.78;5053218;28;20292;-71
2022/11/10 02:46:28;;;;;;;6.37;2.50;;;;;;;9.64;nan;98641.44;5053198;28;20205;-71
2022/11/10 02:48:54;;;;;;;5.87;2.27;;;;;;;9.64;nan;98647.56;5053170;28;20212;-71
2022/11/10 02:51:21;;;;;;;6.00;2.30;;;;;;;9.61;nan;98650.63;5053232;28;20233;-71
2022/11/10 02:53:48;;;;;;;8.70;2.30;;;;;;;9.63;nan;98650.41;5052813;28;20212;-71
2022/11/10 02:56:15;;;;;;;9.53;2.67;;;;;;;9.77;nan;98655.56;5053244;28;20206;-71
2022/11/10 02:58:41;;;;;;;8.53;2.77;;;;;;;9.93;nan;98657.06;5053195;28;20205;-72
2022/11/10 03:01:08;;;;;;;6.23;2.27;;;;;;;9.75;nan;98657.63;5052976;28;20235;-71
2022/11/10 03:03:35;;;;;;;6.73;2.27;;;;;;;9.67;nan;98663.09;5052666;28;20226;-71
2022/11/10 03:06:01;;;;;;;7.17;2.80;;;;;;;9.60;nan;98672.06;5052699;28;20545;-71
2022/11/10 03:08:28;;;;;;;4.33;2.03;;;;;;;9.50;nan;98677.72;5052653;28;20212;-71
2022/11/10 03:10:56;;;;;;;5.53;2.30;;;;;;;9.42;nan;98680.53;5052822;28;20231;-71
2022/11/10 03:13:24;;;;;;;3.60;1.90;;;;;;;9.34;nan;98670.09;5052929;28;20197;-71
2022/11/10 03:15:50;;;;;;;6.50;2.03;;;;;;;9.28;nan;98678.81;5054443;28;20209;-71
2022/11/10 03:18:17;;;;;;;8.13;2.40;;;;;;;9.32;nan;98684.59;5056608;28;20205;-71
2022/11/10 03:20:47;;;;;;;6.63;2.47;;;;;;;9.30;nan;98681.28;5056483;28;20228;-71
2022/11/10 03:23:13;;;;;;;4.67;2.27;;;;;;;9.29;nan;98684.97;5055944;28;20688;-71
2022/11/10 03:25:40;;;;;;;6.00;2.20;;;;;;;9.30;nan;98692.72;5056100;28;20671;-71
2022/11/10 03:28:06;;;;;;;4.17;2.27;;;;;;;9.47;nan;98698.53;5056354;28;20209;-71
2022/11/10 03:30:32;;;;;;;6.53;2.37;;;;;;;9.47;nan;98699.38;5056215;28;20229;-71
2022/11/10 03:32:59;;;;;;;6.50;2.60;;;;;;;9.59;nan;98696.97;5056277;28;20201;-71
2022/11/10 03:35:26;;;;;;;6.23;2.40;;;;;;;9.54;nan;98700.22;5056261;28;20215;-71
2022/11/10 03:37:52;;;;;;;6.53;2.33;;;;;;;9.58;nan;98712.06;5056272;28;20205;-71
2022/11/10 03:40:19;;;;;;;7.57;2.60;;;;;;;9.57;nan;98709.59;5056102;28;20229;-71
2022/11/10 03:42:45;;;;;;;3.60;2.43;;;;;;;9.54;nan;98705.50;5056087;28;20229;-71
2022/11/10 03:45:14;;;;;;;5.77;2.30;;;;;;;9.56;nan;98718.59;5056000;28;20241;-71
2022/11/10 03:47:41;;;;;;;7.57;2.20;;;;;;;9.55;nan;98712.47;5056039;28;20215;-71
2022/11/10 03:50:07;;;;;;;5.97;2.27;;;;;;;9.59;nan;98712.91;5055635;28;20558;-71
2022/11/10 03:52:34;;;;;;;8.17;2.33;;;;;;;9.57;nan;98720.22;5055976;28;20202;-71
2022/11/10 03:55:00;;;;;;;5.23;2.20;;;;;;;9.65;nan;98718.22;5055892;28;20216;-71
2022/11/10 03:57:26;;;;;;;6.33;2.07;;;;;;;9.71;nan;98722.75;5055498;28;20575;-71
2022/11/10 03:59:53;;;;;;;9.17;2.20;;;;;;;9.64;nan;98724.56;5055740;28;20211;-71
2022/11/10 04:02:19;;;;;;;4.80;2.40;;;;;;;9.69;nan;98732.75;5055633;28;20229;-71
2022/11/10 04:10:13;;;;;;;7.63;2.67;;;;;;;9.94;nan;98741.03;5055563;28;20216;-71
2022/11/10 04:15:41;;;;;;;6.50;2.17;;;;;;;10.05;nan;98745.81;5055233;28;20632;-71
2022/11/10 04:18:24;;;;;;;9.10;2.20;;;;;;;10.08;nan;98756.03;5055335;28;20194;-71
2022/11/10 04:20:58;;;;;;;7.30;2.23;;;;;;;10.16;nan;98753.22;5054972;28;20233;-71
2022/11/10 04:23:27;;;;;;;6.97;2.47;;;;;;;10.26;nan;98761.63;5055114;28;20212;-72
2022/11/10 04:28:45;;;;;;;5.60;2.23;;;;;;;10.28;nan;98765.72;5054174;28;20180;-71
2022/11/10 04:31:11;;;;;;;10.50;2.30;;;;;;;10.28;nan;98767.56;5055664;28;20232;-71
2022/11/10 04:33:39;;;;;;;6.20;2.10;;;;;;;10.17;nan;98770.78;5054967;28;20197;-71
2022/11/10 04:36:06;;;;;;;4.97;2.13;;;;;;;10.13;nan;98774.84;5054952;28;20205;-71
2022/11/10 04:38:32;;;;;;;3.53;1.90;;;;;;;10.14;nan;98777.31;5054949;28;20209;-71
2022/11/10 04:40:59;;;;;;;5.63;2.10;;;;;;;10.03;nan;98772.56;5054627;28;20229;-71
2022/11/10 04:43:25;;;;;;;8.23;2.23;;;;;;;10.00;nan;98775.59;5054534;28;20221;-71
2022/11/10 04:45:52;;;;;;;8.33;2.27;;;;;;;9.90;nan;98785.75;5054920;28;20211;-71
2022/11/10 04:48:19;;;;;;;5.27;2.20;;;;;;;9.94;nan;98791.50;5054738;28;20205;-71
2022/11/10 04:50:45;;;;;;;5.63;1.97;;;;;;;9.82;nan;98793.09;5054632;28;20239;-71
2022/11/10 04:53:11;;;;;;;5.27;2.07;;;;;;;9.73;nan;98810.19;5054690;28;20198;-71
2022/11/10 04:55:45;;;;;;;6.00;2.43;;;;;;;9.65;nan;98811.13;5054382;28;20205;-71
2022/11/10 04:58:12;;;;;;;5.80;2.20;;;;;;;9.49;nan;98816.75;5054864;28;20211;-71
2022/11/10 05:00:39;;;;;;;6.30;1.97;;;;;;;9.46;nan;98803.06;5054147;28;20680;-71
2022/11/10 05:03:09;;;;;;;5.80;2.50;;;;;;;9.44;nan;98795.28;5054058;28;20714;-71
2022/11/10 05:05:36;;;;;;;6.30;2.10;;;;;;;9.43;nan;98814.91;5054212;28;20215;-71
2022/11/10 05:08:04;;;;;;;6.83;2.30;;;;;;;9.44;nan;98821.00;5054331;28;20209;-71
2022/11/10 05:10:31;;;;;;;7.60;1.83;;;;;;;9.33;nan;98826.84;5054651;28;20692;-71
2022/11/10 05:12:58;;;;;;;10.50;2.20;;;;;;;9.29;nan;98831.72;5054320;28;20201;-71
2022/11/10 05:15:25;;;;;;;8.43;2.47;;;;;;;9.40;nan;98835.66;5054261;28;20205;-71
2022/11/10 05:17:53;;;;;;;5.77;1.87;;;;;;;9.38;nan;98835.06;5053955;28;20205;-71
2022/11/10 05:20:22;;;;;;;5.87;2.00;;;;;;;9.31;nan;98837.66;5054600;28;20710;-72
2022/11/10 05:25:30;;;;;;;7.37;1.90;;;;;;;9.26;nan;98847.19;5053616;28;20240;-71
2022/11/10 05:27:57;;;;;;;5.97;2.10;;;;;;;9.13;nan;98839.94;5053973;28;20212;-71
2022/11/10 05:30:23;;;;;;;4.67;1.80;;;;;;;8.98;nan;98848.97;5053617;28;20229;-71
2022/11/10 05:32:49;;;;;;;6.77;2.20;;;;;;;8.97;nan;98853.44;5054251;28;20644;-71
2022/11/10 05:35:16;;;;;;;8.67;2.17;;;;;;;9.03;nan;98854.53;5053570;28;20613;-71
2022/11/10 05:37:42;;;;;;;5.90;2.17;;;;;;;9.10;nan;98853.56;5053574;28;20215;-71
2022/11/10 05:40:09;;;;;;;8.57;2.50;;;;;;;9.11;nan;98849.09;5053451;28;20209;-71
2022/11/10 05:42:43;;;;;;;6.03;2.23;;;;;;;9.15;nan;98853.03;5054023;28;20232;-71
2022/11/10 05:45:10;;;;;;;6.97;2.07;;;;;;;9.14;nan;98848.75;5053378;28;20188;-71
2022/11/10 05:47:37;;;;;;;6.97;2.10;;;;;;;9.17;nan;98851.00;5053377;28;20205;-71
2022/11/10 05:50:04;;;;;;;9.50;2.17;;;;;;;9.19;nan;98856.94;5053834;28;20209;-71
2022/11/10 05:52:31;;;;;;;5.17;1.83;;;;;;;9.24;nan;98857.97;5053570;28;20205;-71
2022/11/10 05:54:57;;;;;;;4.73;2.07;;;;;;;9.20;nan;98850.63;5053431;28;20212;-71
2022/11/10 05:57:23;;;;;;;6.20;2.13;;;;;;;9.14;nan;98864.66;5053141;28;20208;-71
2022/11/10 05:59:50;;;;;;;4.83;1.90;;;;;;;9.19;nan;98857.75;5052801;28;20209;-71
2022/11/10 06:02:16;;;;;;;8.80;2.10;;;;;;;9.13;nan;98866.47;5052862;28;20225;-71
2022/11/10 06:04:43;;;;;;;7.10;2.33;;;;;;;9.06;nan;98859.47;5053108;28;20220;-71
2022/11/10 06:07:10;;;;;;;5.93;1.97;;;;;;;9.05;nan;98876.41;5052796;28;20202;-71
2022/11/10 06:09:37;;;;;;;5.47;2.47;;;;;;;9.03;nan;98878.41;5053067;28;20207;-71
2022/11/10 06:12:04;;;;;;;4.30;2.00;;;;;;;9.03;nan;98881.06;5052883;28;20224;-71
2022/11/10 06:14:30;;;;;;;5.90;2.20;;;;;;;9.06;nan;98894.75;5052706;28;20209;-71
2022/11/10 06:16:57;;;;;;;7.37;2.00;;;;;;;9.06;nan;98902.72;5052369;28;20228;-71
2022/11/10 06:19:23;;;;;;;7.17;1.80;;;;;;;9.05;nan;98910.88;5052379;28;20205;-71
2022/11/10 06:21:50;;;;;;;6.30;1.97;;;;;;;9.06;nan;98915.97;5052287;28;20789;-72
2022/11/10 06:24:17;;;;;;;7.07;2.03;;;;;;;9.03;nan;98920.84;5052608;28;20228;-71
2022/11/10 06:26:43;;;;;;;6.33;2.00;;;;;;;9.03;nan;98918.19;5052391;28;20307;-71
2022/11/10 06:29:09;;;;;;;6.73;2.10;;;;;;;9.08;nan;98919.28;5052599;28;20205;-71
2022/11/10 06:31:36;;;;;;;4.80;1.63;;;;;;;9.10;nan;98933.16;5052764;28;20231;-71
2022/11/10 06:34:03;;;;;;;6.63;1.60;;;;;;;9.09;nan;98942.13;5052363;28;20197;-71
2022/11/10 06:36:29;;;;;;;3.33;1.80;;;;;;;9.02;nan;98940.41;5052037;28;20225;-71
2022/11/10 06:38:55;;;;;;;4.73;1.80;;;;;;;8.96;nan;98957.91;5052162;28;20211;-72
2022/11/10 06:41:22;;;;;;;8.07;2.03;;;;;;;9.01;nan;98946.75;5052254;28;20231;-72
2022/11/10 06:43:48;;;;;;;4.47;2.10;;;;;;;8.93;nan;98958.28;5052033;28;20225;-71
2022/11/10 06:46:14;;;;;;;4.40;2.00;;;;;;;8.95;nan;98968.69;5052831;28;20209;-72
2022/11/10 06:48:41;;;;;;;4.97;2.03;;;;;;;9.03;nan;98976.53;5052404;28;20212;-71
2022/11/10 06:51:07;;;;;;;8.40;2.50;;;;;;;9.06;nan;98981.47;5054265;28;20233;-72
2022/11/10 06:53:33;;;;;;;8.87;1.90;;;;;;;9.16;nan;98984.66;5055978;28;20203;-72
2022/11/10 06:56:00;;;;;;;6.60;2.00;;;;;;;9.11;nan;98990.53;5056458;28;20209;-72
2022/11/10 06:58:26;;;;;;;6.50;2.07;;;;;;;9.30;nan;99005.00;5056188;28;20205;-71
2022/11/10 07:00:53;;;;;;;4.70;1.90;;;;;;;9.41;nan;99009.84;5056087;28;20227;-71
2022/11/10 07:03:19;;;;;;;7.40;2.20;;;;;;;9.53;nan;99009.16;5055944;28;20233;-72
2022/11/10 07:05:45;;;;;;;5.80;1.87;;;;;;;9.67;nan;99013.56;5056171;28;20211;-72
2022/11/10 07:08:15;;;;;;;3.33;1.63;;;;;;;9.72;nan;99015.63;5055963;28;20209;-70
2022/11/10 07:10:43;;;;;;;4.93;1.80;;;;;;;9.76;nan;99017.75;5055780;28;20229;-71
2022/11/10 07:13:10;;;;;;;4.10;1.90;;;;;;;9.78;nan;99030.84;5055693;28;20201;-71
2022/11/10 07:15:37;;;;;;;6.47;2.37;;;;;;;9.82;nan;99035.56;5055959;28;20200;-71
2022/11/10 07:18:04;;;;;;;4.60;2.27;;;;;;;9.82;nan;99042.72;5056229;28;20209;-71
2022/11/10 07:20:31;;;;;;;5.13;1.90;;;;;;;9.87;nan;99046.44;5055951;28;20225;-71
2022/11/10 07:23:02;;;;;;;3.93;2.23;;;;;;;9.92;nan;99044.03;5055537;28;20229;-71
2022/11/10 07:25:31;;;;;;;5.17;2.30;;;;;;;9.96;nan;99047.16;5055341;28;20190;-71
2022/11/10 07:28:00;;;;;;;4.40;1.70;;;;;;;10.00;nan;99053.72;5056431;28;20200;-71
2022/11/10 07:30:28;;;;;;;3.37;1.63;;;;;;;9.97;nan;99057.59;5055094;28;20248;-71
2022/11/10 07:33:09;;;;;;;8.67;2.10;;;;;;;9.97;nan;99056.75;5055796;28;20202;-71
2022/11/10 07:35:35;;;;;;;4.27;2.20;;;;;;;9.97;nan;99062.06;5055553;28;20276;-71
2022/11/10 07:38:10;;;;;;;6.47;1.80;;;;;;;9.88;nan;99063.19;5055381;28;20691;-71
2022/11/10 07:40:37;;;;;;;5.93;1.80;;;;;;;9.86;nan;99060.72;5055550;28;20235;-71
2022/11/10 07:43:05;;;;;;;4.23;2.00;;;;;;;9.86;nan;99076.66;5055788;28;20229;-71
2022/11/10 07:45:32;;;;;;;7.87;2.00;;;;;;;9.84;nan;99073.41;5055813;28;20212;-71
2022/11/10 07:48:03;;;;;;;7.30;2.43;;;;;;;9.80;nan;99071.28;5055237;28;20664;-71
2022/11/10 07:50:30;;;;;;;7.33;2.40;;;;;;;9.86;nan;99081.19;5055521;28;20232;-71
2022/11/10 07:53:07;;;;;;;5.40;2.40;;;;;;;9.87;nan;99074.84;5055451;28;20205;-71
2022/11/10 07:55:34;;;;;;;8.53;2.70;;;;;;;9.81;nan;99072.94;5055572;28;20231;-71
2022/11/10 07:58:01;;;;;;;8.40;3.30;;;;;;;9.88;nan;99079.13;5055419;28;20211;-71
2022/11/10 08:00:27;;;;;;;4.77;2.77;;;;;;;9.94;nan;99087.16;5055335;28;20303;-71
2022/11/10 08:02:54;;;;;;;6.83;2.63;;;;;;;9.96;nan;99093.09;5055364;28;20221;-71
2022/11/10 08:05:20;;;;;;;3.10;2.60;;;;;;;10.01;nan;99098.66;5055128;28;20210;-71
2022/11/10 08:07:46;;;;;;;7.97;2.13;;;;;;;10.05;nan;99099.16;5055100;28;20209;-71
2022/11/10 08:10:13;;;;;;;3.87;2.53;;;;;;;10.07;nan;99105.09;5055197;28;20239;-71
2022/11/10 08:12:39;;;;;;;6.97;2.73;;;;;;;10.12;nan;99102.69;5054892;28;20235;-71
2022/11/10 08:15:06;;;;;;;4.43;1.77;;;;;;;10.20;nan;99111.38;5054888;28;20205;-71
2022/11/10 08:17:32;;;;;;;4.60;1.93;;;;;;;10.22;nan;99114.66;5055048;28;20216;-71
2022/11/10 08:19:59;;;;;;;6.73;1.93;;;;;;;10.24;nan;99114.47;5055103;28;20578;-71
2022/11/10 08:22:25;;;;;;;4.30;1.60;;;;;;;10.31;nan;99115.31;5054648;28;20219;-71
2022/11/10 08:24:51;;;;;;;3.97;1.40;;;;;;;10.44;nan;99124.25;5054428;28;20221;-71
2022/11/10 08:27:18;;;;;;;2.47;1.40;;;;;;;10.52;nan;99121.47;5054532;28;20694;-71
2022/11/10 08:29:44;;;;;;;3.03;1.70;;;;;;;10.53;nan;99123.09;5054791;28;20216;-71
2022/11/10 08:32:10;;;;;;;7.13;1.30;;;;;;;10.68;nan;99128.31;5055164;28;20225;-71
2022/11/10 08:34:37;;;;;;;4.60;1.43;;;;;;;10.71;nan;99127.91;5054757;28;20206;-71
2022/11/10 08:37:03;;;;;;;5.83;1.50;;;;;;;10.71;nan;99128.75;5044667;28;20202;-71
2022/11/10 08:39:30;;;;;;;2.93;1.20;;;;;;;10.78;nan;99131.47;5050171;28;20205;-71
2022/11/10 08:41:56;;;;;;;3.30;1.40;;;;;;;10.93;nan;99137.50;5040957;28;20317;-71
2022/11/10 08:44:22;;;;;;;5.23;1.80;;;;;;;11.08;nan;99135.53;5052256;28;20222;-71
2022/11/10 08:46:49;;;;;;;4.90;1.90;;;;;;;11.13;nan;99141.91;5049868;28;20211;-71
2022/11/10 08:49:15;;;;;;;5.97;1.67;;;;;;;11.22;nan;99147.09;5048166;28;20205;-71
2022/11/10 08:51:41;;;;;;;3.47;1.13;;;;;;;11.27;nan;99143.63;5042480;28;20232;-71
2022/11/10 08:54:08;;;;;;;4.53;1.13;;;;;;;11.44;nan;99149.44;5039336;28;20654;-71
2022/11/10 08:56:34;;;;;;;3.23;1.30;;;;;;;11.51;nan;99150.31;5036811;28;20210;-71
2022/11/10 08:59:01;;;;;;;2.43;1.30;;;;;;;11.54;nan;99144.59;5052939;28;20207;-71
2022/11/10 09:01:27;;;;;;;3.17;1.23;;;;;;;11.65;nan;99137.88;5036862;28;20230;-71
2022/11/10 09:03:53;;;;;;;5.37;1.30;;;;;;;11.67;nan;99143.84;5038471;28;20228;-71
2022/11/10 09:06:20;;;;;;;4.23;0.97;;;;;;;11.82;nan;99153.34;5052834;28;20212;-71
2022/11/10 09:08:46;;;;;;;3.77;1.50;;;;;;;11.91;nan;99162.81;5052985;28;20205;-71
2022/11/10 09:11:13;;;;;;;3.63;1.10;;;;;;;11.90;nan;99166.50;5054181;28;20233;-71
2022/11/10 09:13:39;;;;;;;3.50;0.80;;;;;;;11.93;nan;99166.06;5053802;28;20203;-71
2022/11/10 09:16:06;;;;;;;3.90;1.10;;;;;;;12.00;nan;99166.94;5054120;28;20205;-72
2022/11/10 09:18:32;;;;;;;4.33;1.33;;;;;;;12.20;nan;99158.97;5054120;28;20242;-71
2022/11/10 09:20:59;;;;;;;1.77;1.10;;;;;;;12.15;nan;99175.56;5053568;28;20683;-71
2022/11/10 09:23:26;;;;;;;2.07;0.83;;;;;;;12.20;nan;99172.31;5053710;28;20222;-71
2022/11/10 09:25:55;;;;;;;3.17;1.10;;;;;;;12.26;nan;99169.63;5053972;28;20568;-71
2022/11/10 09:28:22;;;;;;;2.67;1.00;;;;;;;12.39;nan;99171.53;5053467;28;20671;-71
2022/11/10 09:30:50;;;;;;;2.33;1.20;;;;;;;12.32;nan;99171.50;5053731;28;20311;-70
2022/11/10 09:33:17;;;;;;;4.97;1.20;;;;;;;12.36;nan;99183.41;5053682;28;20300;-71
2022/11/10 09:35:44;;;;;;;3.40;1.13;;;;;;;12.44;nan;99185.88;5053660;28;20213;-70
2022/11/10 09:38:10;;;;;;;3.07;1.00;;;;;;;12.46;nan;99197.16;5053616;28;20208;-71
2022/11/10 09:40:59;;;;;;;2.63;0.93;;;;;;;12.53;nan;99197.97;5053565;28;20324;-70
2022/11/10 09:43:34;;;;;;;3.27;1.20;;;;;;;12.56;nan;99202.91;5054278;28;20227;-70
2022/11/10 09:46:06;;;;;;;4.93;0.90;;;;;;;12.58;nan;99208.06;5053886;28;20198;-70
2022/11/10 09:48:38;;;;;;;3.37;1.00;;;;;;;12.58;nan;99208.88;5053371;28;20195;-70
2022/11/10 09:51:17;;;;;;;2.77;1.30;;;;;;;12.73;nan;99214.00;5053138;28;20232;-71
2022/11/10 09:54:25;;;;;;;2.43;1.00;;;;;;;12.77;nan;99210.75;5053703;28;20196;-70
2022/11/10 09:56:55;;;;;;;5.50;1.20;;;;;;;12.84;nan;99216.09;5053111;28;20671;-71
2022/11/10 09:59:27;;;;;;;2.47;1.00;;;;;;;12.79;nan;99222.03;5052771;28;20209;-70
2022/11/10 10:02:03;;;;;;;3.83;1.00;;;;;;;12.89;nan;99225.09;5053370;28;20260;-71
2022/11/10 10:05:06;;;;;;;3.77;1.10;;;;;;;12.93;nan;99229.00;5053474;28;20212;-71
2022/11/10 10:07:46;;;;;;;4.67;1.00;;;;;;;12.96;nan;99217.94;5053562;28;20625;-71
2022/11/10 10:10:48;;;;;;;4.57;1.30;;;;;;;13.01;nan;99231.50;5053111;28;20294;-71
2022/11/10 10:13:21;;;;;;;3.20;1.10;;;;;;;12.99;nan;99233.56;5053462;28;20596;-71
2022/11/10 10:16:25;;;;;;;3.87;1.20;;;;;;;13.07;nan;99232.53;5053081;28;20213;-70
2022/11/10 10:19:13;;;;;;;2.87;1.00;;;;;;;13.04;nan;99231.09;5053641;28;20587;-71
2022/11/10 10:22:01;;;;;;;5.83;1.10;;;;;;;12.96;nan;99227.78;5052415;28;20581;-71
2022/11/10 10:24:29;;;;;;;7.77;1.20;;;;;;;13.08;nan;99228.84;5053541;28;20614;-71
2022/11/10 10:26:59;;;;;;;2.07;1.10;;;;;;;13.14;nan;99226.16;5056737;28;20209;-71
2022/11/10 10:29:48;;;;;;;3.53;1.23;;;;;;;13.36;nan;99222.25;5056871;28;20209;-71
2022/11/10 10:32:16;;;;;;;2.47;1.00;;;;;;;13.19;nan;99221.03;5057172;28;20286;-71
2022/11/10 10:34:44;;;;;;;4.20;1.00;;;;;;;13.34;nan;99224.28;5057838;28;20201;-71
2022/11/10 10:37:31;;;;;;;6.00;1.30;;;;;;;13.34;nan;99224.28;5056837;28;20208;-70
2022/11/10 10:39:57;;;;;;;6.47;1.30;;;;;;;13.29;nan;99237.44;5056783;28;20195;-71
2022/11/10 10:42:29;;;;;;;5.23;1.00;;;;;;;13.33;nan;99243.19;5056827;28;20563;-70
2022/11/10 10:45:38;;;;;;;3.27;1.17;;;;;;;13.27;nan;99230.66;5056932;28;20217;-71
2022/11/10 10:48:25;;;;;;;2.60;1.00;;;;;;;13.33;nan;99244.00;5015010;28;20721;-71
2022/11/10 10:50:51;;;;;;;3.77;1.00;;;;;;;13.48;nan;99225.91;5014639;28;20226;-71
2022/11/10 10:53:20;;;;;;;5.87;1.37;;;;;;;13.43;nan;99239.06;5041543;28;20292;-71
2022/11/10 10:56:15;;;;;;;4.57;1.13;;;;;;;13.35;nan;99225.13;5056753;28;20296;-71
2022/11/10 10:58:54;;;;;;;2.87;0.90;;;;;;;13.49;nan;99224.06;5056552;28;20194;-71
2022/11/10 11:01:25;;;;;;;3.93;1.00;;;;;;;13.35;nan;99219.78;5056628;28;20231;-71
2022/11/10 11:03:53;;;;;;;2.13;1.00;;;;;;;13.38;nan;99220.16;5056234;28;20572;-71
2022/11/10 11:06:26;;;;;;;1.97;0.90;;;;;;;13.70;nan;99221.94;5056766;28;20205;-71
2022/11/10 11:08:53;;;;;;;4.07;1.30;;;;;;;13.54;nan;99219.72;5056409;28;20254;-71
2022/11/10 11:11:24;;;;;;;4.00;1.20;;;;;;;13.40;nan;99225.31;5055993;28;20228;-71
2022/11/10 11:13:51;;;;;;;2.23;1.10;;;;;;;13.48;nan;99231.25;5056001;28;20491;-71
2022/11/10 11:16:17;;;;;;;4.00;1.20;;;;;;;13.42;nan;99226.75;5056087;28;20201;-71
2022/11/10 11:18:44;;;;;;;3.77;0.90;;;;;;;13.29;nan;99226.75;5055905;28;20213;-71
2022/11/10 11:21:26;;;;;;;3.47;0.97;;;;;;;13.15;nan;99224.34;5055420;28;20702;-71
2022/11/10 11:24:11;;;;;;;2.90;0.93;;;;;;;13.21;nan;99220.81;5055464;28;20220;-71
2022/11/10 11:27:16;;;;;;;2.17;0.77;;;;;;;13.25;nan;99219.38;5055845;28;20252;-71
2022/11/10 11:29:47;;;;;;;3.57;1.10;;;;;;;13.42;nan;99223.22;5014107;28;20210;-71
2022/11/10 11:32:50;;;;;;;2.40;1.13;;;;;;;13.47;nan;99231.47;5048740;28;20251;-71
2022/11/10 11:35:38;;;;;;;3.77;1.00;;;;;;;13.55;nan;99225.88;5055354;28;20193;-71
2022/11/10 11:38:23;;;;;;;3.87;1.00;;;;;;;13.48;nan;99228.56;5056109;28;20215;-71
2022/11/10 11:41:32;;;;;;;4.00;1.13;;;;;;;13.65;nan;99234.31;5055768;28;20221;-71
2022/11/10 11:44:07;;;;;;;4.23;1.30;;;;;;;13.61;nan;99230.41;5013352;28;20230;-71
2022/11/10 11:47:03;;;;;;;3.87;1.13;;;;;;;13.48;nan;99228.56;5051079;28;20234;-71
2022/11/10 11:50:04;;;;;;;1.90;0.90;;;;;;;13.51;nan;99227.31;5055304;28;20196;-71
2022/11/10 11:52:40;;;;;;;1.97;0.97;;;;;;;13.41;nan;99222.44;5055336;28;20189;-71
2022/11/10 11:55:20;;;;;;;4.80;1.00;;;;;;;13.30;nan;99231.06;5053836;28;20186;-72
2022/11/10 11:58:12;;;;;;;2.00;0.97;;;;;;;13.47;nan;99229.59;5055446;28;20189;-71
2022/11/10 12:00:48;;;;;;;5.90;1.30;;;;;;;13.55;nan;99224.03;5039308;28;20233;-71
2022/11/10 12:03:18;;;;;;;5.27;1.10;;;;;;;13.50;nan;99229.19;5054119;28;20199;-71
2022/11/10 12:05:50;;;;;;;2.87;1.10;;;;;;;13.43;nan;99222.22;5055537;28;20221;-71
2022/11/10 12:08:31;;;;;;;2.77;0.93;;;;;;;13.31;nan;99216.69;5055365;28;20209;-71
2022/11/10 12:10:57;;;;;;;5.17;1.10;;;;;;;13.33;nan;99217.31;5054076;28;20229;-71
2022/11/10 12:13:36;;;;;;;3.20;0.93;;;;;;;13.38;nan;99209.47;5055252;28;20236;-71
2022/11/10 12:16:26;;;;;;;4.30;0.97;;;;;;;13.32;nan;99207.66;5054938;28;20679;-71
2022/11/10 12:19:04;;;;;;;2.60;1.10;;;;;;;13.26;nan;99207.66;5055120;28;20296;-71
2022/11/10 12:21:45;;;;;;;1.97;1.00;;;;;;;13.32;nan;99213.00;5054891;28;20716;-71
2022/11/10 12:24:33;;;;;;;5.60;1.20;;;;;;;13.62;nan;99216.00;5054798;28;20215;-71